Flight Track Log - Related Links

Times and Time Zones

All times are in EDT time to prevent confusion due to time zone crossing. See the UAL4476 flight status page for this flight to view local times or setup timezone preferences in your user account.

Time Position Orientation Groundspeed Altitude Reporting Facility
EDT Latitude Longitude Course Direction KTS MPH feet Rate Location/Type
Tue 06:32:44 AM 35.2261 -80.9269 49° Northeast 160 184 1,300  Level FAA TRACON SMA TRACON (SMA)
Tue 06:33:05 AM 35.2378 -80.9103 49° Northeast 169 194 2,400 2,550 Climbing FAA TRACON SMA TRACON (SMA)
Tue 06:33:24 AM 35.2478 -80.8969 47° Northeast 174 200 3,000 1,800 Climbing FAA TRACON SMA TRACON (SMA)
Tue 06:33:45 AM 35.2639 -80.8758 47° Northeast 228 262 3,600 2,195 Climbing FAA TRACON SMA TRACON (SMA)
Tue 06:34:05 AM 35.2825 -80.8669 21° North 236 272 4,500 2,462 Climbing FAA TRACON SMA TRACON (SMA)
Tue 06:34:24 AM 35.3036 -80.8678 358° North 250 288 5,200 3,300 Climbing FAA TRACON SMA TRACON (SMA)
Tue 06:34:45 AM 35.3303 -80.8689 358° North 248 285 6,700 3,209 Climbing FAA TRACON SMA TRACON (SMA)
Tue 06:35:07 AM 35.3561 -80.8703 357° North 242 278 7,500 1,535 Climbing FAA TRACON SMA TRACON (SMA)
Tue 06:35:28 AM 35.3775 -80.8714 358° North 247 284 7,800 811 Climbing FAA TRACON SMA TRACON (SMA)
Tue 06:35:44 AM 35.3994 -80.8725 358° North 253 291 8,000 333 Climbing FAA TRACON SMA TRACON (SMA)
Tue 06:36:04 AM 35.4222 -80.8736 358° North 262 302 8,000 293 Level FAA TRACON SMA TRACON (SMA)
Tue 06:36:25 AM 35.4456 -80.8750 357° North 266 306 8,200 1,650 Climbing FAA TRACON SMA TRACON (SMA)
Tue 06:36:44 AM 35.4744 -80.8758 359° North 270 311 9,100 2,550 Climbing FAA TRACON SMA TRACON (SMA)
Tue 06:37:05 AM 35.4983 -80.8775 357° North 276 318 9,900 2,550 Climbing FAA TRACON SMA TRACON (SMA)
Tue 06:37:24 AM 35.5222 -80.8786 358° North 280 322 10,800 2,550 Climbing FAA TRACON SMA TRACON (SMA)
Tue 06:37:45 AM 35.5528 -80.8800 358° North 284 327 11,600 1,902 Climbing FAA TRACON SMA TRACON (SMA)
Tue 06:38:05 AM 35.5783 -80.8814 357° North 292 336 12,100 1,692 Climbing FAA TRACON SMA TRACON (SMA)
Tue 06:38:24 AM 35.6050 -80.8825 358° North 303 349 12,700 1,800 Climbing FAA TRACON SMA TRACON (SMA)
Tue 06:38:45 AM 35.6397 -80.8842 358° North 320 368 13,300 1,650 Climbing FAA TRACON SMA TRACON (SMA)
Tue 06:39:04 AM 35.6686 -80.8864 356° North 334 384 13,800 1,500 Climbing FAA TRACON SMA TRACON (SMA)
Tue 06:39:25 AM 35.6978 -80.8919 351° North 343 395 14,300 1,756 Climbing FAA TRACON SMA TRACON (SMA)
Tue 06:39:45 AM 35.7333 -80.9028 346° North 344 396 15,000 2,000 Climbing FAA TRACON SMA TRACON (SMA)
Tue 06:40:04 AM 35.7622 -80.9119 346° North 348 400 15,600 1,800 Climbing FAA TRACON SMA TRACON (SMA)
Tue 06:40:25 AM 35.7908 -80.9217 345° North 348 400 16,200 1,800 Climbing FAA TRACON SMA TRACON (SMA)
Tue 06:40:44 AM 35.8269 -80.9333 345° North 349 402 16,800 1,500 Climbing FAA TRACON SMA TRACON (SMA)
Tue 06:41:05 AM 35.8567 -80.9425 346° North 353 406 17,200 1,171 Climbing FAA TRACON SMA TRACON (SMA)
Tue 06:41:25 AM 35.8864 -80.9528 344° North 358 412 17,600 1,538 Climbing FAA TRACON SMA TRACON (SMA)
Tue 06:41:44 AM 35.9242 -80.9642 346° North 360 414 18,200 1,950 Climbing FAA TRACON SMA TRACON (SMA)
Tue 06:42:05 AM 35.9539 -80.9744 344° North 359 413 18,900 1,950 Climbing FAA TRACON SMA TRACON (SMA)
Tue 06:42:24 AM 35.9833 -80.9833 346° North 356 410 19,500 2,100 Climbing FAA TRACON SMA TRACON (SMA)
Tue 06:42:45 AM 36.0194 -80.9944 346° North 353 406 20,300 2,195 Climbing FAA TRACON SMA TRACON (SMA)
Tue 06:43:05 AM 36.0483 -81.0039 345° North 351 404 21,000 2,000 Climbing FAA TRACON SMA TRACON (SMA)
Tue 06:43:24 AM 36.0747 -81.0114 347° North 349 402 21,600 1,200 Climbing FAA TRACON SMA TRACON (SMA)
Tue 06:43:45 AM 36.0842 -81.0164 337° Northwest 348 400 21,800 293 Climbing FAA TRACON SMA TRACON (SMA)
Tue 06:44:05 AM 36.0842 -81.0164 165° South 348 400 21,800 2,776 Level FAA TRACON SMA TRACON (SMA)
Tue 06:44:52 AM 36.2161 -81.0586 346° North 346 398 24,900 2,833 Climbing Atlanta Center
Tue 06:45:53 AM 36.3064 -81.0861 346° North 341 392 26,900 2,033 Climbing Atlanta Center
Tue 06:46:53 AM 36.3925 -81.1139 345° North 324 373 29,000 1,900 Climbing Atlanta Center
Tue 06:47:53 AM 36.4744 -81.1419 345° North 318 366 30,700 1,300 Climbing Atlanta Center
Tue 06:48:53 AM 36.5606 -81.1672 347° North 312 359 31,600 655 Climbing Atlanta Center
Tue 06:49:52 AM 36.6406 -81.1956 344° North 317 365 32,000 153 Climbing Atlanta Center
Tue 06:51:30 AM 36.8178 -81.2547 345° North 392 451 32,000  Level Indianapolis Center
Tue 06:52:31 AM 36.9233 -81.2906 345° North 402 463 32,000  Level Indianapolis Center
Tue 06:53:32 AM 37.0350 -81.3272 345° North 396 456 32,000  Level Indianapolis Center
Tue 06:54:33 AM 37.1467 -81.3636 345° North 407 468 32,000  Level Indianapolis Center
Tue 06:55:34 AM 37.2558 -81.3997 345° North 406 467 32,000  Level Indianapolis Center
Tue 06:56:34 AM 37.3706 -81.4383 345° North 406 467 32,000  Level Indianapolis Center
Tue 06:57:35 AM 37.4772 -81.4736 345° North 405 466 32,000  Level Indianapolis Center
Tue 06:58:36 AM 37.5844 -81.5103 345° North 409 471 32,000  Level Indianapolis Center
Tue 06:59:37 AM 37.6939 -81.5472 345° North 407 468 32,000  Level Indianapolis Center
Tue 07:00:38 AM 37.8039 -81.5842 345° North 410 472 32,000  Level Indianapolis Center
Tue 07:01:39 AM 37.9086 -81.6208 345° North 413 475 32,000  Level Indianapolis Center
Tue 07:02:40 AM 38.0192 -81.6561 346° North 409 471 32,000  Level Indianapolis Center
Tue 07:03:40 AM 38.1294 -81.6947 345° North 411 473 32,000  Level Indianapolis Center
Tue 07:04:41 AM 38.2619 -81.7397 345° North 408 470 32,000  Level Indianapolis Center
Tue 07:05:42 AM 38.3750 -81.7747 346° North 414 476 32,000  Level Indianapolis Center
Tue 07:06:43 AM 38.4903 -81.7947 352° North 415 478 32,000  Level Indianapolis Center
Tue 07:07:44 AM 38.6075 -81.8139 353° North 417 480 32,000  Level Indianapolis Center
Tue 07:08:45 AM 38.7250 -81.8328 353° North 417 480 32,000  Level Indianapolis Center
Tue 07:09:46 AM 38.8419 -81.8508 353° North 416 479 32,000  Level Indianapolis Center
Tue 07:10:47 AM 38.9583 -81.8714 352° North 417 480 32,000  Level Indianapolis Center
Tue 07:11:48 AM 39.0761 -81.8908 353° North 422 486 32,000  Level Indianapolis Center
Tue 07:12:49 AM 39.1925 -81.9103 353° North 420 483 32,000 -439 Level Indianapolis Center
Tue 07:13:51 AM 39.3117 -81.9292 353° North 427 491 31,100 -1,366 Descending Indianapolis Center
Tue 07:14:52 AM 39.4297 -81.9503 352° North 428 493 29,200 -1,918 Descending Indianapolis Center
Tue 07:15:53 AM 39.5531 -81.9717 352° North 442 509 27,200 -1,918 Descending Indianapolis Center
Tue 07:16:54 AM 39.6750 -81.9911 353° North 441 507 25,300 -1,574 Descending Indianapolis Center
Tue 07:17:55 AM 39.7961 -82.0128 352° North 434 499 24,000 -984 Descending Indianapolis Center
Tue 07:18:56 AM 39.9142 -82.0317 353° North 427 491 23,300 -829 Descending Indianapolis Center
Tue 07:19:58 AM 40.0342 -82.0539 352° North 433 498 22,300 -976 Descending Indianapolis Center
Tue 07:20:59 AM 40.1525 -82.0731 353° North 427 491 21,300 -984 Descending Indianapolis Center
Tue 07:22:00 AM 40.2725 -82.0950 352° North 416 479 20,300 -976 Descending Indianapolis Center
Tue 07:23:02 AM 40.3869 -82.1136 353° North 411 473 19,300 -1,041 Descending Indianapolis Center
Tue 07:23:38 AM 40.4675 -82.1114 North 410 472 18,600 -1,563 Descending Cleveland Center
Tue 07:24:38 AM 40.5625 -82.0233 35° Northeast 388 447 16,800 -1,900 Descending Cleveland Center
Tue 07:25:38 AM 40.6511 -81.9350 37° Northeast 388 447 14,800 -2,000 Descending Cleveland Center
Tue 07:26:38 AM 40.7397 -81.8464 37° Northeast 388 447 12,800 -1,979 Descending Cleveland Center
Tue 07:27:15 AM 40.7881 -81.8008 36° Northeast 392 451 11,600 -1,900 Descending Cleveland Center
Tue 07:27:38 AM 40.8239 -81.7631 39° Northeast 394 453 10,900 -1,500 Descending Cleveland Center
Tue 07:28:15 AM 40.8744 -81.7117 38° Northeast 389 448 10,100 -900 Descending Cleveland Center
Tue 07:28:38 AM 40.9103 -81.6767 36° Northeast 389 448 10,000 -98 Descending Cleveland Center
Tue 07:29:16 AM 40.9650 -81.6308 32° Northeast 369 425 10,000  Level Cleveland Center
Tue 07:29:38 AM 41.0006 -81.6258 North 351 404 10,000  Level Cleveland Center
Tue 07:30:23 AM 41.0708 -81.6656 337° Northwest 363 418 10,000  Level Cleveland Center
Tue 07:30:38 AM 41.0958 -81.6742 345° North 341 392 10,000  Level Cleveland Center
Tue 07:31:17 AM 41.1519 -81.7000 341° North 327 376 10,000 -200 Level Cleveland Center
Tue 07:31:38 AM 41.1706 -81.7086 341° North 336 387 9,800 -1,475 Descending Cleveland Center
Tue 07:32:18 AM 41.2267 -81.7400 337° Northwest 270 311 8,500 -1,700 Descending Cleveland Center
Tue 07:32:38 AM 41.2453 -81.7458 347° North 301 346 8,100 -1,701 Descending Cleveland Center
Tue 07:33:25 AM 41.3036 -81.7578 351° North 274 315 6,600 -1,960 Descending Cleveland Center
Tue 07:34:19 AM 41.3725 -81.7314 16° North 276 318 4,800 -1,890 Descending Cleveland Center
Tue 07:34:38 AM 41.3978 -81.7236 13° North 260 299 4,300 -1,636 Descending Cleveland Center
Tue 07:35:14 AM 41.4375 -81.7106 14° North 253 291 3,300 -1,300 Descending Cleveland Center
Tue 07:35:38 AM 41.4686 -81.7111 359° North 260 299 3,000 -444 Descending Cleveland Center
Tue 07:36:08 AM 41.4872 -81.7444 307° West 235 270 2,900 -600 Descending Cleveland Center
Tue 07:36:38 AM 41.4722 -81.7692 231° Southwest 169 194 2,400 -885 Descending Cleveland Center
Tue 07:37:09 AM 41.4556 -81.7856 216° Southwest 122 140 2,000 -659 Descending Cleveland Center
Tue 07:38:09 AM 41.4322 -81.8211 229° Southwest 131 151 1,400 -600 Descending Cleveland Center

Login

Don't have an account? Register now (free) for customized features, flight alerts, and more!